Time;durP1;ratioP1;P1;durP2;ratioP2;P2;SDS_P1;SDS_P2;PMS_P1;PMS_P2;Temp;Humidity;BMP_temperature;BMP_pressure;BME280_temperature;BME280_humidity;BME280_pressure;Samples;Min_cycle;Max_cycle;Signal;HPM_P1;HPM_P2
2023/10/21 00:01:03;;;;;;;30.15;16.50;;;;;;;12.41;100.00;95900.69;3164771;23;20022;-91
2023/10/21 00:02:21;;;;;;;31.90;17.17;;;;;;;12.53;100.00;95910.25;3164679;23;20339;-93
2023/10/21 00:03:37;;;;;;;31.70;18.30;;;;;;;12.76;100.00;95912.91;3164127;23;20021;-91
2023/10/21 00:04:52;;;;;;;31.73;17.90;;;;;;;12.75;100.00;95919.09;3164409;23;20029;-91
2023/10/21 00:06:08;;;;;;;34.70;17.25;;;;;;;12.53;100.00;95912.88;3164691;23;20029;-91
2023/10/21 00:07:23;;;;;;;33.97;17.23;;;;;;;12.40;100.00;95906.88;3133321;23;20022;-92
2023/10/21 00:08:39;;;;;;;35.42;18.52;;;;;;;12.46;100.00;95910.84;3146380;23;20022;-92
2023/10/21 00:09:54;;;;;;;35.60;18.30;;;;;;;12.67;100.00;95916.22;3149355;23;20022;-92
2023/10/21 00:11:12;;;;;;;34.53;18.60;;;;;;;12.78;100.00;95924.09;3154705;23;20084;-91
2023/10/21 00:12:27;;;;;;;34.20;17.15;;;;;;;12.90;100.00;95929.38;3164621;23;20036;-91
2023/10/21 00:13:43;;;;;;;32.20;17.77;;;;;;;12.84;100.00;95931.50;3164603;23;20497;-91
2023/10/21 00:14:59;;;;;;;32.05;16.98;;;;;;;12.76;100.00;95935.66;3165336;23;20489;-93
2023/10/21 00:16:15;;;;;;;28.67;15.60;;;;;;;12.81;100.00;95936.16;3163887;23;20104;-92
2023/10/21 00:17:31;;;;;;;31.65;16.63;;;;;;;12.40;100.00;95943.63;3148636;23;20030;-91
2023/10/21 00:18:46;;;;;;;33.28;18.02;;;;;;;12.76;100.00;95941.78;3140262;23;20086;-92
2023/10/21 00:20:06;;;;;;;30.27;17.77;;;;;;;12.89;100.00;95944.28;3155537;23;20022;-92
2023/10/21 00:21:23;;;;;;;32.65;16.30;;;;;;;12.50;100.00;95951.63;3165019;23;20025;-92
2023/10/21 00:22:38;;;;;;;30.15;16.15;;;;;;;12.46;100.00;95965.94;3165080;23;20743;-92
2023/10/21 00:23:53;;;;;;;30.65;16.42;;;;;;;12.42;100.00;95962.72;3148372;23;20018;-92
2023/10/21 00:25:11;;;;;;;33.35;17.48;;;;;;;12.56;100.00;95962.50;3156899;23;20028;-91
2023/10/21 00:26:28;;;;;;;34.38;17.95;;;;;;;12.61;100.00;95961.31;3164429;23;20026;-93
2023/10/21 00:27:44;;;;;;;35.65;18.80;;;;;;;12.54;100.00;95953.91;3163872;23;20014;-93
2023/10/21 00:28:59;;;;;;;31.30;17.08;;;;;;;12.75;100.00;95960.25;3164078;23;20214;-93
2023/10/21 00:30:15;;;;;;;32.47;16.63;;;;;;;12.83;100.00;95971.84;3164230;23;20037;-91
2023/10/21 00:31:31;;;;;;;30.63;16.88;;;;;;;12.83;100.00;95965.75;3164849;23;20032;-92
2023/10/21 00:32:46;;;;;;;32.75;17.17;;;;;;;12.94;100.00;95964.94;3164826;23;20072;-91
2023/10/21 00:34:02;;;;;;;28.55;15.63;;;;;;;13.01;100.00;95966.13;3164814;23;20446;-91
2023/10/21 00:35:17;;;;;;;27.85;16.05;;;;;;;13.02;100.00;95959.94;3164717;23;20022;-93
2023/10/21 00:36:34;;;;;;;31.08;16.25;;;;;;;12.66;100.00;95956.56;3163903;23;20406;-92
2023/10/21 00:37:49;;;;;;;30.38;16.35;;;;;;;12.58;100.00;95944.00;3164354;23;20018;-90
2023/10/21 00:39:10;;;;;;;31.10;16.25;;;;;;;12.73;100.00;95947.28;3163839;23;20384;-91
2023/10/21 00:40:26;;;;;;;31.92;15.95;;;;;;;12.90;100.00;95971.38;3147395;23;20097;-91
2023/10/21 00:41:42;;;;;;;28.38;16.55;;;;;;;12.83;100.00;95982.34;3154029;23;20084;-91
2023/10/21 00:42:57;;;;;;;28.45;16.05;;;;;;;12.90;100.00;95974.00;3147975;23;20026;-93
2023/10/21 00:44:13;;;;;;;29.90;16.38;;;;;;;12.93;100.00;95968.50;3154245;23;20022;-91
2023/10/21 00:45:29;;;;;;;33.83;17.50;;;;;;;12.67;100.00;95956.44;3164135;23;20109;-91
2023/10/21 00:46:44;;;;;;;33.35;16.95;;;;;;;12.43;100.00;95967.00;3164767;23;20022;-91
2023/10/21 00:48:00;;;;;;;33.60;17.52;;;;;;;12.31;100.00;95968.78;3148832;23;20538;-91
2023/10/21 00:49:15;;;;;;;38.70;19.25;;;;;;;12.63;100.00;95983.03;3154132;23;20026;-91
2023/10/21 00:50:32;;;;;;;41.25;19.73;;;;;;;12.85;100.00;95992.75;3165877;23;20348;-91
2023/10/21 00:51:49;;;;;;;41.45;20.60;;;;;;;12.93;100.00;95992.16;3147783;23;20022;-91
2023/10/21 00:53:05;;;;;;;42.60;19.98;;;;;;;12.95;100.00;95984.97;3138568;23;20130;-92
2023/10/21 00:54:25;;;;;;;34.42;19.58;;;;;;;13.09;100.00;95983.94;3154176;23;20347;-92
2023/10/21 00:55:41;;;;;;;36.75;20.20;;;;;;;13.03;100.00;96000.16;3164211;23;20046;-91
2023/10/21 00:56:56;;;;;;;38.67;20.50;;;;;;;13.00;100.00;95988.09;3163728;23;20026;-92
2023/10/21 00:58:15;;;;;;;35.80;18.55;;;;;;;13.03;100.00;95987.88;3164110;23;20037;-92
2023/10/21 00:59:30;;;;;;;35.80;19.70;;;;;;;12.93;100.00;95986.91;3132458;23;20482;-91
2023/10/21 01:00:46;;;;;;;37.30;19.48;;;;;;;12.87;100.00;95977.69;3146180;23;20049;-91
2023/10/21 01:02:02;;;;;;;39.17;20.98;;;;;;;12.89;100.00;95988.91;3165062;23;20470;-92
2023/10/21 01:03:18;;;;;;;41.85;21.63;;;;;;;12.51;100.00;95990.06;3165087;23;20045;-90
2023/10/21 01:04:34;;;;;;;37.28;20.20;;;;;;;12.50;100.00;95998.88;3164774;23;20094;-90
2023/10/21 01:05:50;;;;;;;37.17;21.00;;;;;;;12.80;100.00;96006.22;3163479;23;20025;-90
2023/10/21 01:07:05;;;;;;;38.15;19.40;;;;;;;12.63;100.00;96007.47;3163697;23;20179;-91
2023/10/21 01:08:21;;;;;;;35.58;19.65;;;;;;;12.73;100.00;96004.19;3164262;23;20032;-91
2023/10/21 01:09:36;;;;;;;37.83;19.65;;;;;;;12.64;100.00;96000.47;3163407;23;20026;-91
2023/10/21 01:10:52;;;;;;;33.38;19.13;;;;;;;12.66;100.00;96002.03;3164029;23;20072;-92
2023/10/21 01:12:08;;;;;;;36.03;19.55;;;;;;;12.61;100.00;95996.28;3164647;23;20021;-91
2023/10/21 01:13:23;;;;;;;38.47;20.65;;;;;;;12.66;100.00;96004.66;3163607;23;20018;-91
2023/10/21 01:14:39;;;;;;;32.10;18.35;;;;;;;12.50;100.00;96001.50;3165312;23;20446;-91
2023/10/21 01:15:55;;;;;;;31.90;18.38;;;;;;;12.34;100.00;96017.56;3149290;23;20109;-93
2023/10/21 01:17:11;;;;;;;35.45;18.95;;;;;;;12.48;100.00;96014.75;3154168;23;20429;-91
2023/10/21 01:18:30;;;;;;;32.80;19.00;;;;;;;12.41;100.00;96026.63;3163913;23;20132;-92
2023/10/21 01:19:45;;;;;;;34.13;19.00;;;;;;;12.25;100.00;96024.31;3148424;23;20410;-92
2023/10/21 01:21:05;;;;;;;33.58;19.08;;;;;;;12.38;100.00;96026.88;3154457;23;20077;-91
2023/10/21 01:22:21;;;;;;;34.42;19.58;;;;;;;12.46;100.00;96029.78;3163896;23;20053;-92
2023/10/21 01:23:36;;;;;;;37.50;20.08;;;;;;;12.51;100.00;96035.50;3163591;23;20018;-92
2023/10/21 01:24:53;;;;;;;36.08;19.05;;;;;;;12.29;100.00;96039.75;3164617;23;20022;-91
2023/10/21 01:26:09;;;;;;;32.38;18.13;;;;;;;12.21;100.00;96036.81;3164955;23;20466;-91
2023/10/21 01:27:25;;;;;;;35.05;17.85;;;;;;;12.15;100.00;96039.88;3164955;23;20029;-91
2023/10/21 01:28:40;;;;;;;35.08;18.90;;;;;;;12.27;100.00;96044.22;3163709;23;20725;-91
2023/10/21 01:29:56;;;;;;;36.25;18.10;;;;;;;12.35;100.00;96043.66;3165259;23;20026;-92
2023/10/21 01:31:11;;;;;;;34.38;18.42;;;;;;;12.21;100.00;96049.94;3163761;23;20056;-92
2023/10/21 01:32:27;;;;;;;31.08;18.17;;;;;;;12.31;100.00;96047.47;3164035;23;20025;-92
2023/10/21 01:33:43;;;;;;;35.63;19.40;;;;;;;12.22;100.00;96043.75;3147774;23;20022;-91
2023/10/21 01:34:59;;;;;;;36.53;18.40;;;;;;;12.15;100.00;96047.75;3154427;23;20025;-92
2023/10/21 01:36:14;;;;;;;33.22;17.95;;;;;;;12.36;100.00;96050.63;3164424;23;20026;-93
2023/10/21 01:37:30;;;;;;;30.77;17.02;;;;;;;12.42;100.00;96054.53;3164899;23;20340;-92
2023/10/21 01:38:46;;;;;;;30.48;16.63;;;;;;;12.39;100.00;96052.16;3165016;23;20018;-91
2023/10/21 01:40:02;;;;;;;30.27;15.50;;;;;;;12.27;100.00;96052.09;3163750;23;20513;-91
2023/10/21 01:41:18;;;;;;;28.02;16.75;;;;;;;12.23;100.00;96058.53;3149402;23;20026;-91
2023/10/21 01:42:34;;;;;;;30.10;16.67;;;;;;;12.33;100.00;96058.69;3154018;23;20033;-92
2023/10/21 01:43:49;;;;;;;28.42;16.50;;;;;;;12.27;100.00;96067.03;3164278;23;20021;-91
2023/10/21 01:45:06;;;;;;;28.73;16.55;;;;;;;12.44;100.00;96071.03;3164075;23;20013;-92
2023/10/21 01:46:21;;;;;;;32.30;17.30;;;;;;;12.47;100.00;96065.56;3164111;23;20109;-92
2023/10/21 01:47:37;;;;;;;32.28;17.88;;;;;;;12.48;100.00;96069.00;3148361;23;20025;-91
2023/10/21 01:48:52;;;;;;;30.77;17.45;;;;;;;12.48;100.00;96069.84;3138561;23;20434;-91
2023/10/21 01:50:09;;;;;;;36.38;18.67;;;;;;;12.37;100.00;96077.69;3155525;23;20045;-91
2023/10/21 01:51:25;;;;;;;33.83;18.02;;;;;;;12.35;100.00;96079.56;3163576;23;20446;-91
2023/10/21 01:52:41;;;;;;;36.55;18.90;;;;;;;12.42;100.00;96075.53;3149271;23;20019;-92
2023/10/21 01:53:57;;;;;;;34.95;18.33;;;;;;;12.40;100.00;96078.28;3154031;23;20025;-93
2023/10/21 01:55:12;;;;;;;30.52;17.92;;;;;;;12.43;100.00;96079.84;3164036;23;20022;-93
2023/10/21 01:56:28;;;;;;;32.92;18.05;;;;;;;12.14;100.00;96091.53;3164160;23;20025;-94
2023/10/21 01:57:44;;;;;;;30.42;17.20;;;;;;;12.23;100.00;96089.19;3163608;23;20017;-92
2023/10/21 01:58:59;;;;;;;30.70;17.08;;;;;;;12.25;100.00;96095.97;3164501;23;20022;-92
2023/10/21 02:00:22;;;;;;;30.50;16.27;;;;;;;12.25;100.00;96092.53;3164656;23;20018;-90
2023/10/21 02:01:37;;;;;;;30.50;16.45;;;;;;;12.08;100.00;96088.50;3148593;23;20756;-91
2023/10/21 02:02:54;;;;;;;32.30;17.25;;;;;;;12.08;100.00;96091.97;3155028;23;20048;-93
2023/10/21 02:04:11;;;;;;;32.00;17.02;;;;;;;11.66;100.00;96097.50;3148631;23;20470;-91
2023/10/21 02:05:27;;;;;;;36.20;17.73;;;;;;;11.66;100.00;96083.53;3153749;23;20096;-91
2023/10/21 02:06:42;;;;;;;30.15;16.90;;;;;;;11.67;100.00;96091.31;3163619;23;20026;-91
2023/10/21 02:07:58;;;;;;;29.73;15.55;;;;;;;11.73;100.00;96090.91;3163729;23;20021;-93
2023/10/21 02:09:13;;;;;;;30.83;16.88;;;;;;;11.84;100.00;96092.75;3163777;23;20351;-90
2023/10/21 02:10:29;;;;;;;28.50;16.33;;;;;;;11.80;100.00;96091.28;3163823;23;20466;-90
2023/10/21 02:11:45;;;;;;;27.65;15.70;;;;;;;11.81;100.00;96092.13;3147155;23;20025;-92
2023/10/21 02:13:00;;;;;;;29.38;16.95;;;;;;;11.59;100.00;96104.09;3154897;23;20051;-92
2023/10/21 02:14:16;;;;;;;29.35;16.08;;;;;;;11.61;100.00;96104.84;3165044;23;20073;-91
2023/10/21 02:15:35;;;;;;;30.70;14.88;;;;;;;11.23;100.00;96103.91;3164787;23;20018;-91
2023/10/21 02:16:52;;;;;;;31.40;17.17;;;;;;;11.24;100.00;96099.53;3148733;23;20451;-92
2023/10/21 02:18:08;;;;;;;33.90;17.70;;;;;;;11.39;100.00;96108.13;3155473;23;20026;-91
2023/10/21 02:19:24;;;;;;;31.20;17.65;;;;;;;11.41;100.00;96114.09;3165698;23;20017;-91
2023/10/21 02:20:40;;;;;;;29.50;17.00;;;;;;;11.54;100.00;96112.31;3147691;23;20019;-91
2023/10/21 02:21:57;;;;;;;27.05;15.77;;;;;;;11.41;100.00;96122.78;3154289;23;20562;-92
2023/10/21 02:23:12;;;;;;;32.25;16.33;;;;;;;11.43;100.00;96117.44;3147743;23;20074;-92
2023/10/21 02:24:28;;;;;;;35.95;17.58;;;;;;;11.51;100.00;96115.13;3154162;23;20124;-91
2023/10/21 02:25:43;;;;;;;32.95;17.13;;;;;;;11.58;100.00;96119.00;3164157;23;20354;-91
2023/10/21 02:26:59;;;;;;;33.20;16.63;;;;;;;11.65;100.00;96118.56;3164834;23;20017;-91
2023/10/21 02:28:14;;;;;;;34.15;16.73;;;;;;;11.69;100.00;96130.53;3164597;23;20028;-91
2023/10/21 02:29:31;;;;;;;29.85;16.33;;;;;;;11.58;100.00;96126.00;3163556;23;20021;-91
2023/10/21 02:30:47;;;;;;;33.50;17.52;;;;;;;11.61;100.00;96133.69;3164967;23;20657;-91
2023/10/21 02:32:03;;;;;;;35.13;17.33;;;;;;;11.70;100.00;96132.22;3147599;23;20050;-91
2023/10/21 02:33:18;;;;;;;32.13;17.13;;;;;;;11.43;100.00;96141.84;3154139;23;20712;-92
2023/10/21 02:34:34;;;;;;;34.35;17.63;;;;;;;11.66;100.00;96142.06;3163260;23;20314;-90
2023/10/21 02:35:53;;;;;;;30.65;16.40;;;;;;;11.69;100.00;96141.00;3164035;23;20350;-92
2023/10/21 02:37:09;;;;;;;29.50;16.10;;;;;;;11.75;100.00;96145.81;3148026;23;20022;-92
2023/10/21 02:38:25;;;;;;;29.55;15.43;;;;;;;11.70;100.00;96142.69;3138573;23;20018;-91
2023/10/21 02:39:40;;;;;;;28.60;16.40;;;;;;;11.72;100.00;96141.63;3154941;23;20052;-91
2023/10/21 02:40:56;;;;;;;30.55;15.60;;;;;;;11.77;100.00;96143.91;3164487;23;20041;-91
2023/10/21 02:42:12;;;;;;;29.23;15.70;;;;;;;11.80;100.00;96142.88;3164891;23;20018;-90
2023/10/21 02:43:27;;;;;;;29.73;15.07;;;;;;;11.74;100.00;96146.75;3163788;23;20434;-91
2023/10/21 02:44:43;;;;;;;27.80;15.52;;;;;;;11.67;100.00;96146.34;3163389;23;20032;-92
2023/10/21 02:46:12;;;;;;;28.58;15.70;;;;;;;11.39;100.00;96145.63;3163530;23;20022;-91
2023/10/21 02:47:28;;;;;;;28.90;15.85;;;;;;;11.50;100.00;96147.50;3164533;23;20049;-92
2023/10/21 02:48:44;;;;;;;29.15;15.70;;;;;;;11.44;100.00;96148.75;3163502;23;20497;-91
2023/10/21 02:50:00;;;;;;;32.13;16.10;;;;;;;11.12;100.00;96143.94;3147358;23;20517;-91
2023/10/21 02:51:17;;;;;;;29.65;16.48;;;;;;;11.12;100.00;96143.94;3153864;23;20029;-91
2023/10/21 02:52:39;;;;;;;29.58;16.45;;;;;;;11.15;100.00;96148.16;3163183;23;20328;-91
2023/10/21 02:53:55;;;;;;;33.60;17.45;;;;;;;11.41;100.00;96159.47;3163305;23;20022;-90
2023/10/21 02:55:11;;;;;;;28.92;15.70;;;;;;;11.40;100.00;96163.03;3147651;23;20018;-91
2023/10/21 02:56:27;;;;;;;29.33;15.40;;;;;;;11.46;100.00;96153.91;3154010;23;20018;-91
2023/10/21 02:57:42;;;;;;;32.67;17.05;;;;;;;11.50;100.00;96158.00;3164085;23;20470;-90
2023/10/21 02:58:58;;;;;;;30.48;16.23;;;;;;;11.39;100.00;96163.16;3163985;23;20898;-91
2023/10/21 03:00:17;;;;;;;28.42;15.10;;;;;;;11.31;100.00;96158.41;3146792;23;20018;-91
2023/10/21 03:01:33;;;;;;;32.50;16.90;;;;;;;11.00;100.00;96166.56;3139910;23;20074;-91
2023/10/21 03:02:49;;;;;;;29.98;15.85;;;;;;;11.10;100.00;96161.53;3155205;23;20018;-91
2023/10/21 03:04:04;;;;;;;30.90;15.95;;;;;;;11.26;100.00;96158.75;3164935;23;20018;-91
2023/10/21 03:05:20;;;;;;;29.75;15.50;;;;;;;10.97;100.00;96163.31;3163292;23;20022;-91
2023/10/21 03:06:36;;;;;;;29.75;15.60;;;;;;;10.93;100.00;96164.44;3163293;23;20021;-90
2023/10/21 03:07:51;;;;;;;28.92;14.82;;;;;;;10.92;100.00;96166.22;3163301;23;20060;-90
2023/10/21 03:09:07;;;;;;;36.00;15.57;;;;;;;10.93;100.00;96170.50;3163946;23;20026;-91
2023/10/21 03:10:23;;;;;;;29.15;14.52;;;;;;;10.87;100.00;96171.75;3162779;23;20029;-91
2023/10/21 03:11:38;;;;;;;31.30;15.35;;;;;;;10.97;100.00;96179.00;3146778;23;20022;-91
2023/10/21 03:12:54;;;;;;;28.48;15.43;;;;;;;11.08;100.00;96176.53;3154840;23;20354;-92
2023/10/21 03:14:09;;;;;;;27.60;14.15;;;;;;;11.09;100.00;96179.97;3148734;23;20018;-91
2023/10/21 03:15:25;;;;;;;28.48;14.15;;;;;;;11.23;100.00;96184.28;3154757;23;20624;-91
2023/10/21 03:16:40;;;;;;;27.48;14.43;;;;;;;11.27;100.00;96183.13;3162868;23;20017;-91
2023/10/21 03:17:56;;;;;;;24.92;13.68;;;;;;;11.26;100.00;96191.94;3163468;23;20029;-91
2023/10/21 03:19:11;;;;;;;21.33;12.65;;;;;;;11.30;100.00;96194.25;3163511;23;20032;-92
2023/10/21 03:20:31;;;;;;;22.60;11.95;;;;;;;11.28;100.00;96193.53;3163907;23;20025;-91
2023/10/21 03:21:47;;;;;;;24.58;13.23;;;;;;;11.28;100.00;96195.28;3164177;23;20054;-92
2023/10/21 03:23:03;;;;;;;25.20;12.98;;;;;;;11.22;100.00;96201.78;3164260;23;20026;-92
2023/10/21 03:24:18;;;;;;;21.27;12.57;;;;;;;11.27;100.00;96210.19;3164408;23;20021;-91
2023/10/21 03:25:34;;;;;;;24.35;14.23;;;;;;;11.12;100.00;96205.97;3164782;23;20022;-91
2023/10/21 03:26:49;;;;;;;24.55;13.40;;;;;;;11.14;100.00;96217.19;3165157;23;20391;-92
2023/10/21 03:28:05;;;;;;;22.23;13.15;;;;;;;11.07;100.00;96218.50;3147683;23;20537;-91
2023/10/21 03:29:21;;;;;;;25.17;12.73;;;;;;;10.96;100.00;96217.44;3153869;23;20618;-91
2023/10/21 03:30:37;;;;;;;27.45;13.30;;;;;;;10.71;100.00;96219.03;3163670;23;20029;-91
2023/10/21 03:31:52;;;;;;;26.52;14.25;;;;;;;10.87;100.00;96221.50;3163960;23;20022;-93
2023/10/21 03:33:08;;;;;;;23.15;13.15;;;;;;;10.95;100.00;96215.75;3164314;23;20026;-92
2023/10/21 03:34:23;;;;;;;24.25;13.55;;;;;;;10.86;100.00;96219.81;3164335;23;20018;-92
2023/10/21 03:35:39;;;;;;;26.45;13.85;;;;;;;10.59;100.00;96220.66;3163815;23;20014;-91
2023/10/21 03:36:54;;;;;;;25.23;13.60;;;;;;;10.66;100.00;96215.88;3163477;23;20022;-91
2023/10/21 03:38:11;;;;;;;26.35;14.93;;;;;;;10.65;100.00;96221.22;3149674;23;20022;-92
2023/10/21 03:39:26;;;;;;;28.45;13.98;;;;;;;10.48;100.00;96223.13;3154349;23;20077;-91
2023/10/21 03:40:42;;;;;;;26.40;14.25;;;;;;;10.48;100.00;96227.53;3164026;23;20477;-92
2023/10/21 03:41:58;;;;;;;25.05;13.70;;;;;;;10.68;100.00;96227.06;3164087;23;20398;-92
2023/10/21 03:43:13;;;;;;;26.90;13.88;;;;;;;10.77;100.00;96222.19;3164580;23;20414;-93
2023/10/21 03:44:29;;;;;;;25.20;12.98;;;;;;;10.70;100.00;96224.38;3148445;23;20022;-91
2023/10/21 03:45:44;;;;;;;24.90;14.13;;;;;;;10.58;100.00;96231.25;3154140;23;20021;-92
2023/10/21 03:47:00;;;;;;;25.70;12.98;;;;;;;10.36;100.00;96229.09;3149018;23;20022;-92
2023/10/21 03:48:15;;;;;;;25.92;13.13;;;;;;;10.61;100.00;96233.66;3153734;23;20331;-92
2023/10/21 03:49:31;;;;;;;24.15;12.73;;;;;;;10.75;100.00;96240.59;3147704;23;20109;-92
2023/10/21 03:50:47;;;;;;;21.83;12.10;;;;;;;10.84;100.00;96240.03;3153676;23;20029;-92
2023/10/21 03:52:03;;;;;;;24.02;13.38;;;;;;;10.87;100.00;96242.44;3164163;23;20106;-92
2023/10/21 03:53:19;;;;;;;23.02;12.68;;;;;;;10.83;100.00;96248.00;3147710;23;20022;-92
2023/10/21 03:54:34;;;;;;;23.25;12.45;;;;;;;10.54;100.00;96242.81;3155040;23;20022;-91
2023/10/21 03:55:50;;;;;;;20.38;11.35;;;;;;;10.54;100.00;96243.66;3148941;23;20355;-92
2023/10/21 03:57:06;;;;;;;20.63;12.15;;;;;;;10.49;100.00;96240.50;3155995;23;20042;-92
2023/10/21 03:58:22;;;;;;;24.75;12.40;;;;;;;10.48;100.00;96245.81;3164617;23;20251;-91
2023/10/21 03:59:38;;;;;;;21.42;11.93;;;;;;;10.57;100.00;96247.88;3164645;23;20017;-92
2023/10/21 04:00:59;;;;;;;21.10;12.05;;;;;;;10.20;100.00;96253.59;3164298;23;20025;-91
2023/10/21 04:02:14;;;;;;;21.95;11.73;;;;;;;10.39;100.00;96249.84;3166440;23;20022;-92
2023/10/21 04:03:31;;;;;;;22.20;12.10;;;;;;;10.28;100.00;96253.13;3166767;23;20182;-91
2023/10/21 04:04:47;;;;;;;22.48;11.85;;;;;;;10.33;100.00;96248.44;3166323;23;20021;-92
2023/10/21 04:06:03;;;;;;;23.92;12.23;;;;;;;10.11;100.00;96252.38;3165348;23;20022;-91
2023/10/21 04:07:19;;;;;;;24.80;12.50;;;;;;;10.07;100.00;96263.13;3166511;23;20026;-92
2023/10/21 04:08:35;;;;;;;20.50;11.32;;;;;;;10.25;100.00;96274.22;3151371;23;20411;-92
2023/10/21 04:09:51;;;;;;;23.08;12.07;;;;;;;10.30;100.00;96272.19;3156499;23;20022;-92
2023/10/21 04:11:06;;;;;;;25.35;11.60;;;;;;;10.38;100.00;96269.09;3167376;23;20023;-92
2023/10/21 04:12:22;;;;;;;20.58;12.00;;;;;;;9.93;100.00;96279.66;3166444;23;20018;-92
2023/10/21 04:13:38;;;;;;;23.35;12.55;;;;;;;9.98;100.00;96270.59;3151963;23;20018;-91
2023/10/21 04:14:53;;;;;;;24.58;11.65;;;;;;;10.04;100.00;96279.84;3156649;23;20022;-92
2023/10/21 04:16:09;;;;;;;24.05;12.60;;;;;;;10.14;100.00;96285.34;3166246;23;20029;-91
2023/10/21 04:17:24;;;;;;;20.58;11.38;;;;;;;9.96;100.00;96284.69;3169769;23;20079;-92
2023/10/21 04:18:40;;;;;;;22.95;12.48;;;;;;;10.29;100.00;96289.63;3156338;23;20018;-91
2023/10/21 04:19:55;;;;;;;23.05;12.20;;;;;;;10.37;100.00;96293.56;3162040;23;20025;-93
2023/10/21 04:21:11;;;;;;;21.10;12.02;;;;;;;10.46;100.00;96298.25;3173287;23;20066;-92
2023/10/21 04:22:27;;;;;;;21.60;12.02;;;;;;;10.45;100.00;96297.41;3172657;23;20021;-91
2023/10/21 04:23:43;;;;;;;24.25;12.15;;;;;;;10.24;100.00;96293.47;3170884;23;20100;-91
2023/10/21 04:25:01;;;;;;;20.13;11.70;;;;;;;10.11;100.00;96302.06;3170998;23;20018;-92
2023/10/21 04:26:17;;;;;;;20.52;11.50;;;;;;;10.28;100.00;96305.44;3171214;23;20462;-91
2023/10/21 04:27:33;;;;;;;19.83;11.93;;;;;;;10.20;100.00;96308.53;3169428;23;20552;-92
2023/10/21 04:28:49;;;;;;;19.80;12.10;;;;;;;10.02;100.00;96305.25;3171943;23;20029;-91
2023/10/21 04:30:05;;;;;;;67.78;13.30;;;;;;;10.10;100.00;96315.22;3171980;23;20022;-91
2023/10/21 04:31:21;;;;;;;36.33;12.93;;;;;;;10.13;100.00;96322.88;3156733;23;20101;-91
2023/10/21 04:32:37;;;;;;;21.25;10.95;;;;;;;10.22;100.00;96317.09;3152292;23;20018;-91
2023/10/21 04:33:52;;;;;;;20.60;11.05;;;;;;;10.21;100.00;96325.03;3174086;23;20053;-91
2023/10/21 04:35:08;;;;;;;21.20;12.05;;;;;;;10.29;100.00;96333.28;3173756;23;20049;-92
2023/10/21 04:36:24;;;;;;;19.67;11.40;;;;;;;10.29;100.00;96325.41;3173159;23;20475;-92
2023/10/21 04:37:40;;;;;;;21.60;11.82;;;;;;;9.94;100.00;96331.00;3171971;23;20046;-90
2023/10/21 04:38:55;;;;;;;24.70;12.13;;;;;;;9.93;100.00;96335.41;3172492;23;20081;-93
2023/10/21 04:40:11;;;;;;;23.25;11.60;;;;;;;10.07;100.00;96337.16;3172922;23;20026;-90
2023/10/21 04:41:27;;;;;;;24.25;12.98;;;;;;;10.03;100.00;96333.88;3173415;23;20022;-91
2023/10/21 04:42:43;;;;;;;32.17;12.93;;;;;;;9.94;100.00;96333.59;3177843;23;20026;-91
2023/10/21 04:43:58;;;;;;;24.02;11.68;;;;;;;9.96;100.00;96332.59;3180493;23;20009;-91
2023/10/21 04:45:14;;;;;;;23.85;12.55;;;;;;;9.97;100.00;96333.41;3180570;23;20005;-91
2023/10/21 04:46:31;;;;;;;31.33;12.00;;;;;;;9.82;100.00;96338.63;3179532;23;20017;-89
2023/10/21 04:47:48;;;;;;;22.52;11.48;;;;;;;9.79;100.00;96330.97;3179782;23;20006;-92
2023/10/21 04:49:04;;;;;;;22.20;12.23;;;;;;;9.83;100.00;96339.47;3179330;23;20010;-91
2023/10/21 04:50:19;;;;;;;23.45;12.80;;;;;;;9.95;100.00;96341.38;3179280;23;20006;-93
2023/10/21 04:51:35;;;;;;;22.42;12.23;;;;;;;10.07;100.00;96342.41;3179396;23;20010;-92
2023/10/21 04:52:50;;;;;;;26.52;14.00;;;;;;;9.99;100.00;96342.03;3164654;23;20050;-91
2023/10/21 04:54:09;;;;;;;37.97;13.15;;;;;;;10.00;100.00;96349.75;3170734;23;20002;-91
2023/10/21 04:55:25;;;;;;;25.35;12.15;;;;;;;10.20;100.00;96346.88;3179730;23;20006;-92
2023/10/21 04:56:40;;;;;;;34.47;13.00;;;;;;;10.35;100.00;96353.81;3180397;23;20002;-92
2023/10/21 04:57:55;;;;;;;22.92;12.02;;;;;;;10.36;100.00;96359.91;3164743;23;20046;-91
2023/10/21 04:59:11;;;;;;;48.30;12.63;;;;;;;10.50;100.00;96357.31;3171432;23;20077;-94
2023/10/21 05:00:28;;;;;;;44.25;14.43;;;;;;;10.45;100.00;96359.34;3179617;23;20010;-91
2023/10/21 05:01:44;;;;;;;46.88;12.52;;;;;;;10.53;100.00;96359.72;3179034;23;20020;-92
2023/10/21 05:03:00;;;;;;;44.10;12.40;;;;;;;10.59;100.00;96361.13;3179526;23;20037;-91
2023/10/21 05:04:16;;;;;;;75.70;13.23;;;;;;;10.52;100.00;96359.81;3179514;23;20002;-96
2023/10/21 05:05:34;;;;;;;48.17;12.93;;;;;;;10.42;100.00;96364.78;3179899;23;20050;-94
2023/10/21 05:06:50;;;;;;;23.63;11.35;;;;;;;10.54;100.00;96361.41;3179799;23;20018;-94
2023/10/21 05:08:06;;;;;;;25.70;12.02;;;;;;;10.57;100.00;96368.25;3178958;23;20021;-91
2023/10/21 05:09:21;;;;;;;67.05;14.10;;;;;;;10.69;100.00;96370.09;3180099;23;20026;-91
2023/10/21 05:10:37;;;;;;;80.18;14.15;;;;;;;10.73;100.00;96370.72;3159481;23;20014;-92
2023/10/21 05:11:53;;;;;;;20.70;11.77;;;;;;;10.67;100.00;96365.88;3158229;23;20359;-92
2023/10/21 05:13:08;;;;;;;21.00;11.95;;;;;;;10.66;100.00;96362.41;3168394;23;20022;-91
2023/10/21 05:14:25;;;;;;;19.85;11.88;;;;;;;10.67;100.00;96360.66;3168937;23;20077;-91
2023/10/21 05:15:41;;;;;;;26.42;11.90;;;;;;;10.50;100.00;96365.16;3169070;23;20018;-91
2023/10/21 05:16:57;;;;;;;28.05;11.75;;;;;;;10.26;100.00;96365.66;3169631;23;20026;-91
2023/10/21 05:18:12;;;;;;;22.35;12.25;;;;;;;10.20;100.00;96363.44;3152972;23;20022;-90
2023/10/21 05:19:29;;;;;;;24.20;11.63;;;;;;;10.00;100.00;96362.00;3159096;23;20041;-91
2023/10/21 05:20:44;;;;;;;34.28;12.90;;;;;;;9.91;100.00;96360.75;3152597;23;20085;-91
2023/10/21 05:22:02;;;;;;;38.42;13.00;;;;;;;10.13;100.00;96364.72;3142606;23;20078;-92
2023/10/21 05:23:18;;;;;;;27.52;12.85;;;;;;;10.29;100.00;96370.72;3160106;23;20050;-91
2023/10/21 05:24:34;;;;;;;44.72;15.02;;;;;;;10.32;100.00;96375.75;3168761;23;20022;-91
2023/10/21 05:25:49;;;;;;;58.13;13.25;;;;;;;10.42;100.00;96378.72;3166828;23;20026;-91
2023/10/21 05:27:05;;;;;;;53.75;12.63;;;;;;;10.47;100.00;96382.81;3151229;23;21086;-90
2023/10/21 05:28:20;;;;;;;44.97;12.43;;;;;;;10.50;100.00;96388.69;3158122;23;20053;-92
2023/10/21 05:29:36;;;;;;;32.55;11.27;;;;;;;10.56;100.00;96398.78;3167615;23;20022;-92
2023/10/21 05:30:52;;;;;;;70.93;12.95;;;;;;;10.25;100.00;96399.75;3167043;23;20041;-92
2023/10/21 05:32:07;;;;;;;99.05;13.38;;;;;;;10.28;100.00;96410.88;3149835;23;20022;-90
2023/10/21 05:33:24;;;;;;;36.22;10.93;;;;;;;10.31;100.00;96407.25;3157008;23;20021;-92
2023/10/21 05:34:39;;;;;;;29.13;11.40;;;;;;;10.50;100.00;96414.00;3165924;23;20449;-91
2023/10/21 05:35:59;;;;;;;32.38;11.57;;;;;;;10.55;100.00;96423.28;3167607;23;20014;-91
2023/10/21 05:37:14;;;;;;;32.33;12.52;;;;;;;10.62;100.00;96428.97;3165578;23;20358;-91
2023/10/21 05:38:30;;;;;;;44.30;13.00;;;;;;;10.70;100.00;96428.50;3165507;23;20018;-91
2023/10/21 05:39:46;;;;;;;21.20;10.77;;;;;;;10.71;100.00;96435.41;3165964;23;20347;-91
2023/10/21 05:41:01;;;;;;;39.38;11.73;;;;;;;10.76;100.00;96440.38;3166034;23;20026;-92
2023/10/21 05:42:17;;;;;;;21.58;12.00;;;;;;;10.69;100.00;96440.75;3166697;23;20044;-91
2023/10/21 05:43:32;;;;;;;27.45;11.07;;;;;;;10.51;100.00;96440.09;3150367;23;20070;-91
2023/10/21 05:44:48;;;;;;;24.75;12.02;;;;;;;10.31;100.00;96442.06;3140428;23;20530;-92
2023/10/21 05:46:04;;;;;;;22.25;12.45;;;;;;;10.48;100.00;96447.28;3156406;23;20022;-90